Accueil
METAR-TAF:

METAR-TAF

Aéroports :

St Athan, Pays de Galles

latitude: 51-24N, longitude: 003-26W, altitude: 50 m

Observation

Le bulletin a été fait il y a 40 minutes, à 21:50 UTC
Vent 9 kt de est/nord-est
Température 0°C
Humidité 80%
Pression 1022 hPa
Visibilité: 7000 m
brume sèche

METAR: EGDX 222150Z AUTO 06009KT 7000 HZ NCD 00/M03 Q1022

Heure: 22:30 (22:30 UTC)

Prévision

Le bulletin a été fait il y a 9 heures et 12 minutes, à 13:18 UTC
Prévision valable du 22 à 15 UTC au 22 à 18 UTC
Vent 10 kt de est
Visibilité 10 km ou plus
Quelques nuages à une hauteur de 2400 ft
Nuages fragmentés à une hauteur de 3000 ft

TAF: EGDX 221318Z 2215/2218 09010KT 9999 FEW024 BKN030

Observations et prévisions météorologiques de plus de 4000 aéroports (messages METAR et TAF).

Les stations disponibles sont représentées par des disques jaunes et rouges sur la carte.

Passer la souris dessus pour voir le nom de la station.

Cliquer dessus pour voir les observations et prévisions météorologiques.

Pour changer de carte: cliquez sur les boutons verts avec une croix noire pour zoomer, sur le bouton vert avec un tiret pour effectuer un zoom arrière, ou sur les flèches vertes pour les cartes adjacentes.


METAR-TAF: